createdAt,value
2022-09-17T00:01:40.043Z,77.14
2022-09-17T00:04:10.267Z,77.80
2022-09-17T00:06:38.384Z,78.16
2022-09-17T00:09:08.105Z,78.67
2022-09-17T00:11:39.243Z,78.77
2022-09-17T00:14:10.229Z,79.09
2022-09-17T00:16:41.936Z,78.87
2022-09-17T00:19:15.837Z,79.05
2022-09-17T00:21:44.032Z,79.08
2022-09-17T00:24:14.123Z,79.19
2022-09-17T00:26:42.981Z,79.15
2022-09-17T00:29:11.553Z,79.27
2022-09-17T00:31:40.374Z,79.32
2022-09-17T00:34:08.888Z,79.41
2022-09-17T00:36:38.959Z,79.20
2022-09-17T00:39:10.351Z,78.97
2022-09-17T00:41:39.144Z,79.03
2022-09-17T00:44:44.487Z,78.82
2022-09-17T00:47:28.029Z,78.60
2022-09-17T00:50:02.456Z,78.35
2022-09-17T00:52:37.546Z,78.25
2022-09-17T00:55:26.951Z,78.02
2022-09-17T00:58:01.233Z,77.92
2022-09-17T01:00:31.327Z,77.53
2022-09-17T01:02:59.972Z,77.75
2022-09-17T01:05:44.534Z,77.75
2022-09-17T01:08:35.438Z,78.14
2022-09-17T01:11:21.757Z,78.56
2022-09-17T01:14:19.510Z,78.44
2022-09-17T01:17:09.079Z,78.46
2022-09-17T01:20:03.987Z,78.67
2022-09-17T01:22:55.406Z,78.60
2022-09-17T01:25:25.177Z,79.07
2022-09-17T01:28:17.766Z,79.57
2022-09-17T01:31:10.173Z,79.91
2022-09-17T01:33:44.440Z,79.99
2022-09-17T01:36:46.492Z,80.03
2022-09-17T01:39:36.165Z,80.45
2022-09-17T01:42:17.245Z,80.65
2022-09-17T01:45:03.247Z,80.45
2022-09-17T01:47:37.254Z,80.46
2022-09-17T01:50:13.617Z,80.35
2022-09-17T01:52:43.571Z,80.61
2022-09-17T01:55:15.753Z,80.52
2022-09-17T01:57:56.186Z,80.25
2022-09-17T02:00:25.229Z,79.98
2022-09-17T02:03:30.649Z,79.83
2022-09-17T02:06:13.831Z,79.94
2022-09-17T02:08:41.638Z,79.74
2022-09-17T02:11:13.792Z,79.50
2022-09-17T02:13:48.425Z,79.51
2022-09-17T02:16:23.664Z,79.68
2022-09-17T02:19:11.047Z,79.24
2022-09-17T02:21:56.324Z,79.10
2022-09-17T02:24:27.160Z,78.77
2022-09-17T02:27:03.936Z,78.33
2022-09-17T02:29:35.083Z,77.92
2022-09-17T02:32:04.013Z,77.79
2022-09-17T02:34:32.561Z,77.89
2022-09-17T02:37:01.956Z,77.13
2022-09-17T02:39:30.270Z,76.61
2022-09-17T02:42:36.112Z,76.64
2022-09-17T02:45:26.386Z,76.47
2022-09-17T02:48:22.156Z,76.16
2022-09-17T02:51:30.422Z,76.69
2022-09-17T02:54:10.285Z,76.87
2022-09-17T02:57:12.030Z,77.07
2022-09-17T03:00:00.296Z,77.77
2022-09-17T03:02:35.111Z,77.95
2022-09-17T03:05:04.615Z,77.80
2022-09-17T03:07:33.094Z,77.67
2022-09-17T03:10:01.165Z,77.52
2022-09-17T03:12:29.339Z,77.62
2022-09-17T03:14:57.313Z,77.52
2022-09-17T03:17:25.485Z,77.36
2022-09-17T03:19:53.455Z,77.63
2022-09-17T03:22:21.626Z,77.74
2022-09-17T03:24:49.595Z,77.57
2022-09-17T03:27:17.668Z,77.26
2022-09-17T03:29:45.635Z,76.91
2022-09-17T03:32:13.811Z,76.88
2022-09-17T03:34:41.891Z,76.86
2022-09-17T03:37:10.159Z,76.85
2022-09-17T03:39:38.646Z,76.51
2022-09-17T03:42:06.712Z,76.54
2022-09-17T03:44:34.952Z,76.33
2022-09-17T03:47:02.959Z,76.55
2022-09-17T03:49:30.943Z,76.63
2022-09-17T03:51:59.809Z,76.58
2022-09-17T03:54:27.891Z,76.46
2022-09-17T03:56:55.963Z,76.31
2022-09-17T03:59:24.004Z,76.03
2022-09-17T04:01:52.190Z,75.71
2022-09-17T04:04:20.250Z,76.00
2022-09-17T04:06:48.255Z,76.37
2022-09-17T04:09:16.326Z,76.15
2022-09-17T04:11:44.396Z,75.63
2022-09-17T04:14:12.464Z,75.30
2022-09-17T04:16:40.802Z,74.98
2022-09-17T04:19:08.916Z,75.18
2022-09-17T04:21:36.990Z,75.33
2022-09-17T04:24:05.030Z,75.66
2022-09-17T04:26:33.238Z,75.68
2022-09-17T04:29:01.407Z,75.90
2022-09-17T04:31:29.465Z,75.94
2022-09-17T04:33:57.730Z,75.95
2022-09-17T04:36:27.678Z,75.99
2022-09-17T04:38:55.645Z,76.15
2022-09-17T04:41:23.713Z,76.08
2022-09-17T04:43:51.892Z,76.02
2022-09-17T04:46:20.306Z,76.21
2022-09-17T04:48:48.339Z,76.47
2022-09-17T04:51:16.311Z,76.64
2022-09-17T04:53:44.282Z,76.47
2022-09-17T04:56:12.348Z,76.52
2022-09-17T04:58:40.733Z,76.24
2022-09-17T05:01:08.848Z,76.37
2022-09-17T05:03:36.973Z,76.23
2022-09-17T05:06:05.593Z,75.61
2022-09-17T05:08:33.631Z,75.21
2022-09-17T05:11:01.903Z,74.84
2022-09-17T05:13:29.978Z,74.51
2022-09-17T05:15:58.080Z,74.14
2022-09-17T05:18:26.835Z,74.22
2022-09-17T05:20:54.916Z,74.58
2022-09-17T05:23:22.903Z,74.54
2022-09-17T05:25:51.055Z,74.73
2022-09-17T05:28:19.330Z,74.64
2022-09-17T05:30:47.715Z,74.96
2022-09-17T05:33:15.785Z,74.84
2022-09-17T05:35:44.876Z,74.64
2022-09-17T05:38:13.058Z,74.74
2022-09-17T05:40:41.657Z,74.83
2022-09-17T05:43:10.534Z,75.09
2022-09-17T05:45:39.005Z,75.25
2022-09-17T05:48:10.056Z,74.93
2022-09-17T05:50:38.428Z,74.82
2022-09-17T05:53:09.166Z,74.59
2022-09-17T05:55:37.548Z,74.66
2022-09-17T05:58:13.591Z,74.88
2022-09-17T06:00:42.843Z,74.48
2022-09-17T06:03:12.074Z,74.73
2022-09-17T06:05:40.683Z,74.88
2022-09-17T06:08:09.573Z,75.31
2022-09-17T06:10:38.887Z,75.70
2022-09-17T06:13:07.458Z,75.84
2022-09-17T06:15:35.534Z,75.78
2022-09-17T06:18:03.806Z,76.38
2022-09-17T06:20:31.880Z,76.40
2022-09-17T06:22:59.921Z,76.67
2022-09-17T06:25:29.775Z,77.17
2022-09-17T06:27:57.939Z,77.71
2022-09-17T06:30:26.009Z,78.17
2022-09-17T06:32:54.186Z,78.44
2022-09-17T06:35:22.153Z,78.48
2022-09-17T06:37:50.120Z,78.40
2022-09-17T06:40:18.223Z,77.96
2022-09-17T06:42:46.265Z,77.79
2022-09-17T06:45:16.687Z,77.39
2022-09-17T06:47:45.481Z,77.87
2022-09-17T06:50:13.763Z,77.56
2022-09-17T06:52:49.331Z,77.27
2022-09-17T06:55:17.891Z,77.01
2022-09-17T06:57:46.598Z,77.34
2022-09-17T07:00:15.366Z,77.26
2022-09-17T07:02:43.434Z,76.22
2022-09-17T07:05:11.509Z,75.27
2022-09-17T07:07:41.418Z,75.28
2022-09-17T07:10:09.939Z,76.13
2022-09-17T07:12:44.468Z,76.49
2022-09-17T07:15:16.184Z,76.90
2022-09-17T07:17:46.876Z,77.19
2022-09-17T07:20:15.310Z,77.29
2022-09-17T07:22:43.780Z,77.61
2022-09-17T07:25:12.672Z,77.44
2022-09-17T07:27:40.746Z,77.30
2022-09-17T07:30:09.842Z,76.66
2022-09-17T07:32:37.909Z,76.45
2022-09-17T07:35:06.499Z,76.43
2022-09-17T07:37:34.673Z,76.23
2022-09-17T07:40:02.879Z,76.34
2022-09-17T07:42:32.036Z,76.51
2022-09-17T07:45:02.249Z,76.51
2022-09-17T07:47:30.646Z,76.19
2022-09-17T07:49:58.612Z,76.23
2022-09-17T07:52:27.693Z,76.30
2022-09-17T07:54:55.657Z,76.97
2022-09-17T07:57:23.751Z,77.28
2022-09-17T07:59:51.675Z,77.00
2022-09-17T08:02:24.108Z,76.93
2022-09-17T08:04:52.673Z,77.15
2022-09-17T08:07:20.748Z,77.05
2022-09-17T08:09:48.926Z,77.15
2022-09-17T08:12:18.497Z,76.75
2022-09-17T08:14:46.496Z,76.13
2022-09-17T08:17:14.567Z,75.90
2022-09-17T08:19:42.977Z,76.24
2022-09-17T08:22:11.017Z,76.65
2022-09-17T08:24:39.095Z,75.81
2022-09-17T08:27:07.267Z,75.97
2022-09-17T08:29:35.549Z,76.72
2022-09-17T08:32:03.661Z,77.40
2022-09-17T08:34:31.791Z,77.41
2022-09-17T08:37:00.072Z,78.36
2022-09-17T08:39:28.242Z,78.47
2022-09-17T08:42:25.688Z,77.42
2022-09-17T08:44:59.943Z,77.82
2022-09-17T08:47:36.499Z,78.60
2022-09-17T08:50:07.732Z,79.89
2022-09-17T08:52:55.161Z,80.12
2022-09-17T08:56:06.549Z,79.58
2022-09-17T08:58:43.630Z,79.37
2022-09-17T09:01:35.581Z,79.94
2022-09-17T09:04:32.966Z,80.19
2022-09-17T09:07:04.062Z,80.70
2022-09-17T09:09:41.663Z,80.05
2022-09-17T09:12:28.363Z,80.26
2022-09-17T09:15:03.197Z,80.08
2022-09-17T09:17:46.325Z,80.58
2022-09-17T09:20:46.195Z,81.23
2022-09-17T09:23:58.724Z,81.83
2022-09-17T09:26:45.259Z,82.15
2022-09-17T09:29:34.700Z,82.36
2022-09-17T09:32:23.287Z,82.96
2022-09-17T09:34:55.048Z,84.09
2022-09-17T09:37:35.158Z,84.64
2022-09-17T09:40:41.878Z,84.97
2022-09-17T09:44:02.712Z,84.59
2022-09-17T09:46:30.294Z,84.69
2022-09-17T09:49:13.472Z,84.94
2022-09-17T09:51:51.160Z,85.04
2022-09-17T09:54:54.770Z,85.56
2022-09-17T09:57:44.347Z,85.83
2022-09-17T10:00:30.752Z,87.43
2022-09-17T10:03:21.365Z,86.51
2022-09-17T10:05:59.013Z,85.27
2022-09-17T10:08:29.003Z,84.56
2022-09-17T10:11:02.337Z,85.48
2022-09-17T10:13:38.623Z,83.76
2022-09-17T10:16:18.242Z,82.25
2022-09-17T10:18:48.599Z,80.63
2022-09-17T10:21:31.722Z,80.51
2022-09-17T10:24:01.631Z,81.39
2022-09-17T10:26:35.434Z,81.39
2022-09-17T10:29:11.293Z,80.48
2022-09-17T10:31:51.461Z,79.82
2022-09-17T10:34:24.582Z,79.61
2022-09-17T10:36:53.282Z,79.72
2022-09-17T10:39:27.379Z,79.16
2022-09-17T10:41:59.511Z,79.56
2022-09-17T10:44:30.544Z,79.40
2022-09-17T10:47:19.297Z,80.21
2022-09-17T10:49:50.139Z,78.02
2022-09-17T10:52:31.051Z,77.70
2022-09-17T10:55:20.480Z,77.57
2022-09-17T10:58:07.533Z,76.59
2022-09-17T11:01:12.775Z,76.27
2022-09-17T11:04:07.132Z,75.26
2022-09-17T11:07:05.408Z,74.68
2022-09-17T11:09:59.698Z,75.24
2022-09-17T11:12:55.108Z,72.69
2022-09-17T11:15:47.627Z,72.30
2022-09-17T11:18:47.059Z,72.16
2022-09-17T11:21:36.536Z,71.95
2022-09-17T11:24:29.050Z,71.63
2022-09-17T11:26:59.636Z,72.02
2022-09-17T11:30:02.602Z,72.28
2022-09-17T11:32:36.384Z,72.69
2022-09-17T11:35:25.981Z,72.41
2022-09-17T11:38:02.071Z,72.21
2022-09-17T11:40:48.747Z,72.26
2022-09-17T11:43:38.005Z,73.15
2022-09-17T11:46:24.338Z,72.81
2022-09-17T11:48:59.831Z,72.59
2022-09-17T11:51:38.452Z,73.29
2022-09-17T11:54:36.453Z,73.88
2022-09-17T11:57:21.729Z,73.53
2022-09-17T11:59:56.640Z,73.09
2022-09-17T12:02:58.893Z,72.91
2022-09-17T12:05:33.624Z,73.57
2022-09-17T12:08:13.869Z,73.62
2022-09-17T12:10:48.852Z,73.57
2022-09-17T12:13:22.763Z,73.74
2022-09-17T12:16:00.842Z,74.04
2022-09-17T12:19:12.462Z,75.11
2022-09-17T12:22:15.656Z,73.61
2022-09-17T12:24:44.572Z,72.92
2022-09-17T12:27:35.869Z,74.21
2022-09-17T12:30:11.783Z,74.65
2022-09-17T12:32:39.634Z,75.02
2022-09-17T12:35:29.732Z,74.38
2022-09-17T12:38:36.862Z,72.46
2022-09-17T12:41:24.190Z,72.45
2022-09-17T12:43:55.333Z,72.04
2022-09-17T12:46:48.035Z,72.14
2022-09-17T12:49:46.259Z,71.17
2022-09-17T12:52:36.141Z,70.65
2022-09-17T12:55:07.181Z,68.85
2022-09-17T12:57:50.413Z,68.05
2022-09-17T13:00:18.862Z,66.55
2022-09-17T13:02:58.943Z,64.37
2022-09-17T13:05:39.097Z,63.18
2022-09-17T13:08:19.838Z,63.58
2022-09-17T13:11:06.503Z,61.91
2022-09-17T13:13:53.183Z,61.97
2022-09-17T13:16:36.436Z,63.08
2022-09-17T13:19:20.163Z,63.11
2022-09-17T13:22:01.443Z,62.21
2022-09-17T13:24:31.420Z,62.70
2022-09-17T13:27:02.392Z,64.49
2022-09-17T13:29:45.429Z,65.65
2022-09-17T13:32:35.689Z,66.36
2022-09-17T13:35:12.480Z,66.89
2022-09-17T13:37:43.531Z,67.31
2022-09-17T13:40:32.412Z,67.81
2022-09-17T13:43:06.405Z,68.35
2022-09-17T13:45:55.253Z,69.29
2022-09-17T13:48:26.837Z,70.00
2022-09-17T13:50:55.258Z,70.48
2022-09-17T13:53:27.354Z,70.69
2022-09-17T13:56:01.241Z,71.26
2022-09-17T13:58:32.423Z,71.41
2022-09-17T14:01:11.873Z,71.26
2022-09-17T14:03:45.749Z,71.45
2022-09-17T14:06:14.981Z,70.68
2022-09-17T14:08:47.438Z,70.67
2022-09-17T14:11:21.644Z,70.25
2022-09-17T14:13:54.319Z,69.51
2022-09-17T14:16:37.627Z,69.11
2022-09-17T14:19:24.533Z,67.85
2022-09-17T14:21:57.419Z,66.72
2022-09-17T14:24:32.477Z,64.68
2022-09-17T14:27:42.070Z,63.92
2022-09-17T14:30:21.258Z,64.83
2022-09-17T14:33:01.416Z,64.45
2022-09-17T14:35:43.756Z,64.84
2022-09-17T14:38:34.732Z,64.55
2022-09-17T14:41:11.840Z,64.76
2022-09-17T14:44:03.749Z,64.78
2022-09-17T14:46:56.500Z,65.12
2022-09-17T14:49:27.290Z,65.64
2022-09-17T14:51:59.802Z,66.31
2022-09-17T14:54:35.984Z,66.81
2022-09-17T14:57:26.344Z,67.14
2022-09-17T14:59:56.531Z,66.28
2022-09-17T15:02:45.129Z,67.15
2022-09-17T15:05:31.690Z,68.13
2022-09-17T15:08:21.280Z,69.29
2022-09-17T15:10:53.794Z,69.04
2022-09-17T15:13:38.560Z,69.59
2022-09-17T15:16:12.960Z,69.64
2022-09-17T15:19:03.788Z,69.65
2022-09-17T15:21:32.056Z,70.05
2022-09-17T15:24:11.295Z,70.23
2022-09-17T15:26:43.048Z,70.09
2022-09-17T15:29:15.234Z,70.06
2022-09-17T15:31:43.256Z,69.85
2022-09-17T15:34:12.898Z,70.16
2022-09-17T15:36:40.974Z,70.04
2022-09-17T15:39:31.774Z,69.93
2022-09-17T15:42:00.570Z,70.00
2022-09-17T15:44:30.860Z,69.83
2022-09-17T15:47:39.305Z,69.84
2022-09-17T15:50:29.292Z,70.12
2022-09-17T15:53:09.760Z,70.22
2022-09-17T15:55:46.121Z,70.56
2022-09-17T15:58:22.894Z,71.05
2022-09-17T16:01:15.798Z,70.82
2022-09-17T16:03:45.149Z,70.69
2022-09-17T16:06:19.184Z,70.45
2022-09-17T16:08:57.989Z,70.62
2022-09-17T16:11:29.543Z,71.22
2022-09-17T16:14:00.091Z,71.61
2022-09-17T16:16:38.353Z,71.68
2022-09-17T16:19:06.583Z,71.86
2022-09-17T16:21:35.719Z,72.14
2022-09-17T16:24:03.932Z,72.05
2022-09-17T16:26:34.153Z,72.58
2022-09-17T16:29:11.028Z,73.29
2022-09-17T16:31:39.018Z,73.58
2022-09-17T16:34:07.380Z,73.32
2022-09-17T16:36:35.446Z,72.93
2022-09-17T16:39:05.200Z,72.73
2022-09-17T16:41:33.536Z,73.18
2022-09-17T16:44:02.322Z,73.59
2022-09-17T16:46:31.088Z,74.09
2022-09-17T16:49:00.627Z,74.78
2022-09-17T16:51:28.897Z,74.76
2022-09-17T16:53:57.891Z,74.89
2022-09-17T16:56:26.269Z,75.00
2022-09-17T16:58:56.080Z,75.24
2022-09-17T17:01:24.347Z,75.14
2022-09-17T17:03:54.291Z,75.13
2022-09-17T17:06:22.346Z,75.15
2022-09-17T17:08:50.414Z,75.18
2022-09-17T17:11:18.795Z,75.31
2022-09-17T17:13:47.596Z,75.54
2022-09-17T17:16:16.335Z,75.67
2022-09-17T17:18:45.317Z,75.94
2022-09-17T17:21:15.157Z,76.31
2022-09-17T17:23:47.965Z,76.51
2022-09-17T17:26:17.058Z,76.51
2022-09-17T17:28:45.127Z,76.49
2022-09-17T17:31:13.251Z,76.40
2022-09-17T17:33:41.376Z,76.74
2022-09-17T17:36:10.268Z,76.47
2022-09-17T17:38:38.753Z,76.37
2022-09-17T17:41:12.452Z,76.03
2022-09-17T17:43:41.756Z,76.01
2022-09-17T17:46:11.596Z,76.72
2022-09-17T17:48:39.734Z,76.42
2022-09-17T17:51:10.072Z,75.80
2022-09-17T17:53:42.421Z,75.79
2022-09-17T17:56:12.157Z,77.16
2022-09-17T17:58:41.241Z,77.35
2022-09-17T18:01:15.324Z,76.85
2022-09-17T18:03:43.625Z,76.74
2022-09-17T18:06:12.882Z,76.80
2022-09-17T18:08:42.952Z,77.00
2022-09-17T18:11:11.850Z,76.98
2022-09-17T18:13:40.520Z,76.91
2022-09-17T18:16:12.424Z,76.63
2022-09-17T18:18:44.845Z,76.38
2022-09-17T18:21:20.002Z,76.57
2022-09-17T18:23:49.198Z,76.52
2022-09-17T18:26:26.283Z,76.33
2022-09-17T18:28:54.460Z,76.14
2022-09-17T18:31:32.393Z,75.62
2022-09-17T18:34:10.664Z,75.58
2022-09-17T18:36:39.725Z,75.78
2022-09-17T18:39:52.789Z,75.49
2022-09-17T18:41:59.460Z,75.13
2022-09-17T18:44:27.531Z,75.61
2022-09-17T18:46:55.606Z,76.41
2022-09-17T18:49:23.547Z,76.52
2022-09-17T18:51:51.642Z,76.60
2022-09-17T18:54:19.816Z,76.82
2022-09-17T18:56:47.888Z,76.83
2022-09-17T18:59:16.168Z,76.92
2022-09-17T19:01:44.300Z,76.97
2022-09-17T19:04:12.517Z,76.96
2022-09-17T19:06:40.893Z,76.89
2022-09-17T19:09:09.686Z,77.47
2022-09-17T19:11:37.761Z,77.75
2022-09-17T19:14:06.038Z,77.76
2022-09-17T19:16:34.152Z,77.67
2022-09-17T19:19:02.522Z,77.75
2022-09-17T19:21:30.556Z,77.98
2022-09-17T19:23:58.521Z,78.15
2022-09-17T19:26:27.823Z,78.32
2022-09-17T19:28:58.112Z,78.26
2022-09-17T19:31:27.466Z,78.14
2022-09-17T19:33:58.599Z,78.13
2022-09-17T19:36:26.765Z,77.91
2022-09-17T19:38:55.260Z,77.51
2022-09-17T19:41:23.625Z,77.41
2022-09-17T19:43:56.979Z,77.77
2022-09-17T19:46:26.406Z,77.95
2022-09-17T19:48:57.348Z,77.99
2022-09-17T19:51:28.402Z,78.02
2022-09-17T19:53:57.437Z,77.97
2022-09-17T19:56:27.363Z,77.94
2022-09-17T19:58:56.886Z,77.99
2022-09-17T20:01:25.546Z,77.98
2022-09-17T20:03:53.680Z,78.03
2022-09-17T20:06:23.527Z,78.20
2022-09-17T20:08:54.144Z,78.10
2022-09-17T20:11:24.654Z,77.94
2022-09-17T20:14:06.829Z,77.94
2022-09-17T20:16:37.140Z,78.18
2022-09-17T20:19:07.941Z,78.44
2022-09-17T20:21:36.300Z,78.70
2022-09-17T20:24:06.705Z,78.92
2022-09-17T20:26:35.203Z,78.92
2022-09-17T20:29:04.400Z,78.88
2022-09-17T20:31:33.467Z,78.75
2022-09-17T20:34:03.147Z,78.86
2022-09-17T20:36:34.125Z,79.06
2022-09-17T20:39:12.292Z,79.11
2022-09-17T20:41:43.168Z,79.17
2022-09-17T20:44:11.391Z,79.11
2022-09-17T20:46:39.681Z,79.05
2022-09-17T20:49:07.927Z,78.55
2022-09-17T20:51:36.001Z,78.35
2022-09-17T20:54:04.868Z,78.52
2022-09-17T20:56:34.546Z,78.48
2022-09-17T20:59:25.040Z,78.43
2022-09-17T21:01:53.882Z,78.63
2022-09-17T21:04:24.225Z,78.51
2022-09-17T21:06:53.602Z,78.45
2022-09-17T21:09:21.772Z,78.24
2022-09-17T21:11:49.859Z,78.24
2022-09-17T21:14:18.645Z,78.16
2022-09-17T21:16:47.134Z,78.42
2022-09-17T21:19:16.749Z,78.70
2022-09-17T21:21:45.934Z,79.03
2022-09-17T21:24:14.001Z,79.36
2022-09-17T21:26:42.174Z,78.95
2022-09-17T21:29:10.455Z,78.85
2022-09-17T21:31:39.407Z,78.78
2022-09-17T21:34:11.816Z,79.06
2022-09-17T21:36:41.673Z,79.08
2022-09-17T21:39:15.555Z,79.23
2022-09-17T21:41:46.075Z,79.49
2022-09-17T21:44:15.249Z,79.75
2022-09-17T21:46:43.554Z,80.01
2022-09-17T21:49:13.645Z,80.13
2022-09-17T21:51:43.273Z,80.21
2022-09-17T21:54:15.488Z,80.30
2022-09-17T21:56:46.949Z,80.23
2022-09-17T21:59:17.059Z,80.57
2022-09-17T22:01:47.531Z,80.75
2022-09-17T22:04:18.345Z,81.13
2022-09-17T22:06:49.215Z,80.96
2022-09-17T22:09:25.026Z,80.47
2022-09-17T22:11:53.655Z,80.40
2022-09-17T22:14:23.976Z,80.19
2022-09-17T22:16:56.976Z,80.27
2022-09-17T22:19:25.603Z,81.67
2022-09-17T22:21:55.996Z,84.05
2022-09-17T22:24:25.480Z,85.30
2022-09-17T22:26:57.780Z,85.86
2022-09-17T22:29:31.797Z,86.44
2022-09-17T22:32:00.138Z,87.18
2022-09-17T22:34:29.885Z,87.84
2022-09-17T22:36:59.252Z,88.21
2022-09-17T22:39:27.246Z,88.96
2022-09-17T22:41:55.298Z,89.33
2022-09-17T22:44:23.659Z,89.57
2022-09-17T22:46:52.138Z,89.75
2022-09-17T22:49:20.541Z,89.51
2022-09-17T22:51:49.018Z,89.14
2022-09-17T22:54:18.525Z,88.96
2022-09-17T22:56:48.440Z,88.50
2022-09-17T22:59:18.289Z,88.56
2022-09-17T23:01:47.511Z,88.75
2022-09-17T23:04:15.835Z,89.00
2022-09-17T23:06:44.002Z,89.29
2022-09-17T23:09:13.916Z,89.71
2022-09-17T23:11:42.498Z,90.03
2022-09-17T23:14:12.926Z,90.42
2022-09-17T23:16:46.936Z,90.58
2022-09-17T23:19:18.702Z,90.59
2022-09-17T23:21:46.978Z,90.77
2022-09-17T23:24:21.084Z,90.64
2022-09-17T23:26:49.956Z,90.36
2022-09-17T23:29:18.764Z,90.27
2022-09-17T23:31:47.350Z,90.38
2022-09-17T23:34:15.522Z,90.46
2022-09-17T23:36:43.702Z,90.56
2022-09-17T23:39:12.186Z,90.54
2022-09-17T23:41:43.512Z,89.96
2022-09-17T23:44:15.707Z,89.82
2022-09-17T23:46:46.326Z,89.92
2022-09-17T23:49:15.938Z,90.09
2022-09-17T23:51:44.833Z,89.86
2022-09-17T23:54:12.897Z,89.42
2022-09-17T23:56:41.286Z,89.12
2022-09-17T23:59:10.817Z,88.74
